sensor_id;sensor_type;location;lat;lon;timestamp;temperature;humidity
48454;DHT22;34261;55.678;12.464;2023-02-17T00:00:33;7.50;99.90
48454;DHT22;34261;55.678;12.464;2023-02-17T00:02:59;7.40;99.90
48454;DHT22;34261;55.678;12.464;2023-02-17T00:05:25;7.40;99.90
48454;DHT22;34261;55.678;12.464;2023-02-17T00:07:51;7.40;99.90
48454;DHT22;34261;55.678;12.464;2023-02-17T00:10:16;7.40;99.90
48454;DHT22;34261;55.678;12.464;2023-02-17T00:12:42;7.40;99.90
48454;DHT22;34261;55.678;12.464;2023-02-17T00:15:07;7.40;99.90
48454;DHT22;34261;55.678;12.464;2023-02-17T00:17:33;7.50;99.90
48454;DHT22;34261;55.678;12.464;2023-02-17T00:19:58;7.50;99.90
48454;DHT22;34261;55.678;12.464;2023-02-17T00:22:24;7.50;99.90
48454;DHT22;34261;55.678;12.464;2023-02-17T00:24:49;7.50;99.90
48454;DHT22;34261;55.678;12.464;2023-02-17T00:27:15;7.50;99.90
48454;DHT22;34261;55.678;12.464;2023-02-17T00:29:40;7.50;99.90
48454;DHT22;34261;55.678;12.464;2023-02-17T00:32:05;7.50;99.90
48454;DHT22;34261;55.678;12.464;2023-02-17T00:34:31;7.50;99.90
48454;DHT22;34261;55.678;12.464;2023-02-17T00:36:57;7.60;99.90
48454;DHT22;34261;55.678;12.464;2023-02-17T00:39:22;7.50;99.90
48454;DHT22;34261;55.678;12.464;2023-02-17T00:41:48;7.50;99.90
48454;DHT22;34261;55.678;12.464;2023-02-17T00:44:18;7.50;99.90
48454;DHT22;34261;55.678;12.464;2023-02-17T00:46:44;7.50;99.90
48454;DHT22;34261;55.678;12.464;2023-02-17T00:49:14;7.50;99.90
48454;DHT22;34261;55.678;12.464;2023-02-17T00:51:40;7.50;99.90
48454;DHT22;34261;55.678;12.464;2023-02-17T00:54:05;7.50;99.90
48454;DHT22;34261;55.678;12.464;2023-02-17T00:56:31;7.50;99.90
48454;DHT22;34261;55.678;12.464;2023-02-17T00:58:56;7.50;99.90
48454;DHT22;34261;55.678;12.464;2023-02-17T01:01:21;7.50;99.90
48454;DHT22;34261;55.678;12.464;2023-02-17T01:03:47;7.50;99.90
48454;DHT22;34261;55.678;12.464;2023-02-17T01:06:16;7.50;99.90
48454;DHT22;34261;55.678;12.464;2023-02-17T01:08:42;7.50;99.90
48454;DHT22;34261;55.678;12.464;2023-02-17T01:11:15;7.50;99.90
48454;DHT22;34261;55.678;12.464;2023-02-17T01:13:40;7.50;99.90
48454;DHT22;34261;55.678;12.464;2023-02-17T01:16:05;7.50;99.90
48454;DHT22;34261;55.678;12.464;2023-02-17T01:18:31;7.50;99.90
48454;DHT22;34261;55.678;12.464;2023-02-17T01:20:56;7.50;99.90
48454;DHT22;34261;55.678;12.464;2023-02-17T01:23:22;7.50;99.90
48454;DHT22;34261;55.678;12.464;2023-02-17T01:25:47;7.50;99.90
48454;DHT22;34261;55.678;12.464;2023-02-17T01:28:16;7.50;99.90
48454;DHT22;34261;55.678;12.464;2023-02-17T01:30:41;7.50;99.90
48454;DHT22;34261;55.678;12.464;2023-02-17T01:33:07;7.50;99.90
48454;DHT22;34261;55.678;12.464;2023-02-17T01:35:32;7.50;99.90
48454;DHT22;34261;55.678;12.464;2023-02-17T01:37:58;7.50;99.90
48454;DHT22;34261;55.678;12.464;2023-02-17T01:40:23;7.50;99.90
48454;DHT22;34261;55.678;12.464;2023-02-17T01:42:49;7.50;99.90
48454;DHT22;34261;55.678;12.464;2023-02-17T01:47:44;7.50;99.90
48454;DHT22;34261;55.678;12.464;2023-02-17T01:50:10;7.50;99.90
48454;DHT22;34261;55.678;12.464;2023-02-17T01:52:35;7.50;99.90
48454;DHT22;34261;55.678;12.464;2023-02-17T01:55:10;7.50;99.90
48454;DHT22;34261;55.678;12.464;2023-02-17T01:57:36;7.50;99.90
48454;DHT22;34261;55.678;12.464;2023-02-17T02:00:03;7.50;99.90
48454;DHT22;34261;55.678;12.464;2023-02-17T02:02:29;7.40;99.90
48454;DHT22;34261;55.678;12.464;2023-02-17T02:04:56;7.40;99.90
48454;DHT22;34261;55.678;12.464;2023-02-17T02:07:27;7.50;99.90
48454;DHT22;34261;55.678;12.464;2023-02-17T02:09:54;7.50;99.90
48454;DHT22;34261;55.678;12.464;2023-02-17T02:12:24;7.50;99.90
48454;DHT22;34261;55.678;12.464;2023-02-17T02:14:50;7.50;99.90
48454;DHT22;34261;55.678;12.464;2023-02-17T02:17:21;7.50;99.90
48454;DHT22;34261;55.678;12.464;2023-02-17T02:20:02;7.50;99.90
48454;DHT22;34261;55.678;12.464;2023-02-17T02:25:07;7.50;99.90
48454;DHT22;34261;55.678;12.464;2023-02-17T02:27:42;7.40;99.90
48454;DHT22;34261;55.678;12.464;2023-02-17T02:30:17;7.50;99.90
48454;DHT22;34261;55.678;12.464;2023-02-17T02:32:48;7.50;99.90
48454;DHT22;34261;55.678;12.464;2023-02-17T02:35:19;7.50;99.90
48454;DHT22;34261;55.678;12.464;2023-02-17T02:40:21;7.60;99.90
48454;DHT22;34261;55.678;12.464;2023-02-17T02:42:47;7.60;99.90
48454;DHT22;34261;55.678;12.464;2023-02-17T02:45:14;7.50;99.90
48454;DHT22;34261;55.678;12.464;2023-02-17T02:47:42;7.50;99.90
48454;DHT22;34261;55.678;12.464;2023-02-17T02:50:09;7.60;99.90
48454;DHT22;34261;55.678;12.464;2023-02-17T02:55:06;7.60;99.90
48454;DHT22;34261;55.678;12.464;2023-02-17T02:57:39;7.60;99.90
48454;DHT22;34261;55.678;12.464;2023-02-17T03:00:14;7.60;99.90
48454;DHT22;34261;55.678;12.464;2023-02-17T03:02:44;7.50;99.90
48454;DHT22;34261;55.678;12.464;2023-02-17T03:07:43;7.50;99.90
48454;DHT22;34261;55.678;12.464;2023-02-17T03:10:10;7.50;99.90
48454;DHT22;34261;55.678;12.464;2023-02-17T03:12:37;7.50;99.90
48454;DHT22;34261;55.678;12.464;2023-02-17T03:15:07;7.50;99.90
48454;DHT22;34261;55.678;12.464;2023-02-17T03:17:33;7.50;99.90
48454;DHT22;34261;55.678;12.464;2023-02-17T03:20:02;7.50;99.90
48454;DHT22;34261;55.678;12.464;2023-02-17T03:22:34;7.40;99.90
48454;DHT22;34261;55.678;12.464;2023-02-17T03:25:01;7.50;99.90
48454;DHT22;34261;55.678;12.464;2023-02-17T03:27:26;7.40;99.90
48454;DHT22;34261;55.678;12.464;2023-02-17T03:29:52;7.40;99.90
48454;DHT22;34261;55.678;12.464;2023-02-17T03:32:18;7.40;99.90
48454;DHT22;34261;55.678;12.464;2023-02-17T03:34:43;7.50;99.90
48454;DHT22;34261;55.678;12.464;2023-02-17T03:37:09;7.50;99.90
48454;DHT22;34261;55.678;12.464;2023-02-17T03:39:34;7.50;99.90
48454;DHT22;34261;55.678;12.464;2023-02-17T03:42:00;7.50;99.90
48454;DHT22;34261;55.678;12.464;2023-02-17T03:44:26;7.50;99.90
48454;DHT22;34261;55.678;12.464;2023-02-17T03:46:51;7.40;99.90
48454;DHT22;34261;55.678;12.464;2023-02-17T03:49:17;7.40;99.90
48454;DHT22;34261;55.678;12.464;2023-02-17T03:51:42;7.50;99.90
48454;DHT22;34261;55.678;12.464;2023-02-17T03:54:08;7.50;99.90
48454;DHT22;34261;55.678;12.464;2023-02-17T03:56:33;7.50;99.90
48454;DHT22;34261;55.678;12.464;2023-02-17T03:58:59;7.60;99.90
48454;DHT22;34261;55.678;12.464;2023-02-17T04:01:24;7.50;99.90
48454;DHT22;34261;55.678;12.464;2023-02-17T04:03:50;7.50;99.90
48454;DHT22;34261;55.678;12.464;2023-02-17T04:06:15;7.60;99.90
48454;DHT22;34261;55.678;12.464;2023-02-17T04:08:41;7.60;99.90
48454;DHT22;34261;55.678;12.464;2023-02-17T04:11:07;7.60;99.90
48454;DHT22;34261;55.678;12.464;2023-02-17T04:13:33;7.60;99.90
48454;DHT22;34261;55.678;12.464;2023-02-17T04:15:59;7.60;99.90
48454;DHT22;34261;55.678;12.464;2023-02-17T04:18:26;7.60;99.90
48454;DHT22;34261;55.678;12.464;2023-02-17T04:20:51;7.60;99.90
48454;DHT22;34261;55.678;12.464;2023-02-17T04:23:17;7.50;99.90
48454;DHT22;34261;55.678;12.464;2023-02-17T04:25:43;7.60;99.90
48454;DHT22;34261;55.678;12.464;2023-02-17T04:28:09;7.70;99.90
48454;DHT22;34261;55.678;12.464;2023-02-17T04:30:35;7.70;99.90
48454;DHT22;34261;55.678;12.464;2023-02-17T04:33:00;7.70;99.90
48454;DHT22;34261;55.678;12.464;2023-02-17T04:35:26;7.70;99.90
48454;DHT22;34261;55.678;12.464;2023-02-17T04:37:52;7.60;99.90
48454;DHT22;34261;55.678;12.464;2023-02-17T04:40:17;7.70;99.90
48454;DHT22;34261;55.678;12.464;2023-02-17T04:42:43;7.70;99.90
48454;DHT22;34261;55.678;12.464;2023-02-17T04:45:08;7.70;99.90
48454;DHT22;34261;55.678;12.464;2023-02-17T04:47:34;7.80;99.90
48454;DHT22;34261;55.678;12.464;2023-02-17T04:50:00;7.80;99.90
48454;DHT22;34261;55.678;12.464;2023-02-17T04:52:25;7.80;99.90
48454;DHT22;34261;55.678;12.464;2023-02-17T04:54:51;7.80;99.90
48454;DHT22;34261;55.678;12.464;2023-02-17T04:57:16;7.80;99.90
48454;DHT22;34261;55.678;12.464;2023-02-17T04:59:42;7.80;99.90
48454;DHT22;34261;55.678;12.464;2023-02-17T05:02:07;7.80;99.90
48454;DHT22;34261;55.678;12.464;2023-02-17T05:04:33;7.80;99.90
48454;DHT22;34261;55.678;12.464;2023-02-17T05:06:59;7.80;99.90
48454;DHT22;34261;55.678;12.464;2023-02-17T05:09:24;7.80;99.90
48454;DHT22;34261;55.678;12.464;2023-02-17T05:11:50;7.90;99.90
48454;DHT22;34261;55.678;12.464;2023-02-17T05:14:15;7.90;99.90
48454;DHT22;34261;55.678;12.464;2023-02-17T05:16:41;7.90;99.90
48454;DHT22;34261;55.678;12.464;2023-02-17T05:19:06;7.90;99.90
48454;DHT22;34261;55.678;12.464;2023-02-17T05:21:32;7.90;99.90
48454;DHT22;34261;55.678;12.464;2023-02-17T05:23:57;7.90;99.90
48454;DHT22;34261;55.678;12.464;2023-02-17T05:26:23;8.00;99.90
48454;DHT22;34261;55.678;12.464;2023-02-17T05:28:49;8.00;99.90
48454;DHT22;34261;55.678;12.464;2023-02-17T05:31:15;8.00;99.90
48454;DHT22;34261;55.678;12.464;2023-02-17T05:33:40;8.10;99.90
48454;DHT22;34261;55.678;12.464;2023-02-17T05:36:07;8.10;99.90
48454;DHT22;34261;55.678;12.464;2023-02-17T05:38:33;8.10;99.90
48454;DHT22;34261;55.678;12.464;2023-02-17T05:40:58;8.10;99.90
48454;DHT22;34261;55.678;12.464;2023-02-17T05:43:24;8.10;99.90
48454;DHT22;34261;55.678;12.464;2023-02-17T05:45:50;8.10;99.90
48454;DHT22;34261;55.678;12.464;2023-02-17T05:48:15;8.20;99.90
48454;DHT22;34261;55.678;12.464;2023-02-17T05:50:41;8.20;99.90
48454;DHT22;34261;55.678;12.464;2023-02-17T05:53:07;8.20;99.90
48454;DHT22;34261;55.678;12.464;2023-02-17T05:55:32;8.10;99.90
48454;DHT22;34261;55.678;12.464;2023-02-17T05:57:58;8.20;99.90
48454;DHT22;34261;55.678;12.464;2023-02-17T06:00:24;8.20;99.90
48454;DHT22;34261;55.678;12.464;2023-02-17T06:02:50;8.20;99.90
48454;DHT22;34261;55.678;12.464;2023-02-17T06:05:15;8.30;99.90
48454;DHT22;34261;55.678;12.464;2023-02-17T06:07:41;8.20;99.90
48454;DHT22;34261;55.678;12.464;2023-02-17T06:10:06;8.20;99.90
48454;DHT22;34261;55.678;12.464;2023-02-17T06:12:32;8.20;99.90
48454;DHT22;34261;55.678;12.464;2023-02-17T06:14:57;8.20;99.90
48454;DHT22;34261;55.678;12.464;2023-02-17T06:17:23;8.10;99.90
48454;DHT22;34261;55.678;12.464;2023-02-17T06:19:48;8.20;99.90
48454;DHT22;34261;55.678;12.464;2023-02-17T06:22:14;8.20;99.90
48454;DHT22;34261;55.678;12.464;2023-02-17T06:24:39;8.10;99.90
48454;DHT22;34261;55.678;12.464;2023-02-17T06:27:05;8.20;99.90
48454;DHT22;34261;55.678;12.464;2023-02-17T06:29:31;8.20;99.90
48454;DHT22;34261;55.678;12.464;2023-02-17T06:31:56;8.20;99.90
48454;DHT22;34261;55.678;12.464;2023-02-17T06:34:22;8.20;99.90
48454;DHT22;34261;55.678;12.464;2023-02-17T06:36:48;8.30;99.90
48454;DHT22;34261;55.678;12.464;2023-02-17T06:39:13;8.30;99.90
48454;DHT22;34261;55.678;12.464;2023-02-17T06:41:40;8.30;99.90
48454;DHT22;34261;55.678;12.464;2023-02-17T06:44:07;8.30;99.90
48454;DHT22;34261;55.678;12.464;2023-02-17T06:46:33;8.30;99.90
48454;DHT22;34261;55.678;12.464;2023-02-17T06:48:58;8.30;99.90
48454;DHT22;34261;55.678;12.464;2023-02-17T06:51:25;8.30;99.90
48454;DHT22;34261;55.678;12.464;2023-02-17T06:53:51;8.40;99.90
48454;DHT22;34261;55.678;12.464;2023-02-17T06:56:26;8.40;99.90
48454;DHT22;34261;55.678;12.464;2023-02-17T06:58:51;8.40;99.90
48454;DHT22;34261;55.678;12.464;2023-02-17T07:01:19;8.40;99.90
48454;DHT22;34261;55.678;12.464;2023-02-17T07:03:45;8.40;99.90
48454;DHT22;34261;55.678;12.464;2023-02-17T07:06:10;8.40;99.90
48454;DHT22;34261;55.678;12.464;2023-02-17T07:08:37;8.40;99.90
48454;DHT22;34261;55.678;12.464;2023-02-17T07:11:08;8.50;99.90
48454;DHT22;34261;55.678;12.464;2023-02-17T07:13:34;8.50;99.90
48454;DHT22;34261;55.678;12.464;2023-02-17T07:16:00;8.50;99.90
48454;DHT22;34261;55.678;12.464;2023-02-17T07:18:30;8.50;99.90
48454;DHT22;34261;55.678;12.464;2023-02-17T07:20:57;8.50;99.90
48454;DHT22;34261;55.678;12.464;2023-02-17T07:23:24;8.50;99.90
48454;DHT22;34261;55.678;12.464;2023-02-17T07:25:50;8.50;99.90
48454;DHT22;34261;55.678;12.464;2023-02-17T07:28:18;8.40;99.90
48454;DHT22;34261;55.678;12.464;2023-02-17T07:30:48;8.50;99.90
48454;DHT22;34261;55.678;12.464;2023-02-17T07:33:13;8.50;99.90
48454;DHT22;34261;55.678;12.464;2023-02-17T07:35:43;8.50;99.90
48454;DHT22;34261;55.678;12.464;2023-02-17T07:38:12;8.40;99.90
48454;DHT22;34261;55.678;12.464;2023-02-17T07:41:14;8.40;99.90
48454;DHT22;34261;55.678;12.464;2023-02-17T13:08:34;11.00;99.90
48454;DHT22;34261;55.678;12.464;2023-02-17T13:11:02;10.90;99.90
48454;DHT22;34261;55.678;12.464;2023-02-17T13:13:28;10.90;99.90
48454;DHT22;34261;55.678;12.464;2023-02-17T13:18:27;10.90;99.90
48454;DHT22;34261;55.678;12.464;2023-02-17T13:20:55;10.90;99.90
48454;DHT22;34261;55.678;12.464;2023-02-17T13:23:34;10.90;99.90
48454;DHT22;34261;55.678;12.464;2023-02-17T13:26:10;10.80;99.90
48454;DHT22;34261;55.678;12.464;2023-02-17T13:28:37;10.80;99.90
48454;DHT22;34261;55.678;12.464;2023-02-17T13:31:11;10.90;99.90
48454;DHT22;34261;55.678;12.464;2023-02-17T13:33:56;10.90;99.90
48454;DHT22;34261;55.678;12.464;2023-02-17T13:38:58;11.00;99.90
48454;DHT22;34261;55.678;12.464;2023-02-17T13:41:32;11.10;99.90
48454;DHT22;34261;55.678;12.464;2023-02-17T13:43:59;11.20;99.90
48454;DHT22;34261;55.678;12.464;2023-02-17T13:46:29;11.30;99.90
48454;DHT22;34261;55.678;12.464;2023-02-17T13:48:59;11.30;99.90
48454;DHT22;34261;55.678;12.464;2023-02-17T13:51:27;11.50;99.90
48454;DHT22;34261;55.678;12.464;2023-02-17T13:53:52;11.80;99.90
48454;DHT22;34261;55.678;12.464;2023-02-17T13:56:25;11.70;99.90
48454;DHT22;34261;55.678;12.464;2023-02-17T13:58:52;11.60;99.90
48454;DHT22;34261;55.678;12.464;2023-02-17T14:01:19;11.60;99.90
48454;DHT22;34261;55.678;12.464;2023-02-17T14:03:47;11.50;99.90
48454;DHT22;34261;55.678;12.464;2023-02-17T14:06:28;11.50;99.90
48454;DHT22;34261;55.678;12.464;2023-02-17T14:08:54;11.50;99.90
48454;DHT22;34261;55.678;12.464;2023-02-17T14:11:25;11.40;99.90
48454;DHT22;34261;55.678;12.464;2023-02-17T14:13:51;11.40;99.90
48454;DHT22;34261;55.678;12.464;2023-02-17T14:16:35;11.40;99.90
48454;DHT22;34261;55.678;12.464;2023-02-17T14:21:26;11.40;99.90
48454;DHT22;34261;55.678;12.464;2023-02-17T14:23:53;11.40;99.90
48454;DHT22;34261;55.678;12.464;2023-02-17T14:28:54;11.40;99.90
48454;DHT22;34261;55.678;12.464;2023-02-17T14:31:20;11.30;99.90
48454;DHT22;34261;55.678;12.464;2023-02-17T14:34:00;11.40;99.90
48454;DHT22;34261;55.678;12.464;2023-02-17T14:36:27;11.30;99.90
48454;DHT22;34261;55.678;12.464;2023-02-17T14:38:53;11.30;99.90
48454;DHT22;34261;55.678;12.464;2023-02-17T14:41:19;11.30;99.90
48454;DHT22;34261;55.678;12.464;2023-02-17T14:43:44;11.30;99.90
48454;DHT22;34261;55.678;12.464;2023-02-17T14:46:11;11.30;99.90
48454;DHT22;34261;55.678;12.464;2023-02-17T14:48:36;11.20;99.90
48454;DHT22;34261;55.678;12.464;2023-02-17T14:51:02;11.10;99.90
48454;DHT22;34261;55.678;12.464;2023-02-17T14:53:32;11.10;99.90
48454;DHT22;34261;55.678;12.464;2023-02-17T14:55:58;11.20;99.90
48454;DHT22;34261;55.678;12.464;2023-02-17T14:58:25;11.10;99.90
48454;DHT22;34261;55.678;12.464;2023-02-17T15:00:51;11.10;99.90
48454;DHT22;34261;55.678;12.464;2023-02-17T15:03:16;11.00;99.90
48454;DHT22;34261;55.678;12.464;2023-02-17T15:05:42;10.90;99.90
48454;DHT22;34261;55.678;12.464;2023-02-17T15:08:14;10.90;99.90
48454;DHT22;34261;55.678;12.464;2023-02-17T15:10:40;10.90;99.90
48454;DHT22;34261;55.678;12.464;2023-02-17T15:13:09;10.80;99.90
48454;DHT22;34261;55.678;12.464;2023-02-17T15:15:53;10.80;99.90
48454;DHT22;34261;55.678;12.464;2023-02-17T15:18:19;10.70;99.90
48454;DHT22;34261;55.678;12.464;2023-02-17T15:20:45;10.70;99.90
48454;DHT22;34261;55.678;12.464;2023-02-17T15:23:13;10.60;99.90
48454;DHT22;34261;55.678;12.464;2023-02-17T15:25:39;10.60;99.90
48454;DHT22;34261;55.678;12.464;2023-02-17T15:28:05;10.60;99.90
48454;DHT22;34261;55.678;12.464;2023-02-17T17:52:04;8.60;99.90
48454;DHT22;34261;55.678;12.464;2023-02-17T17:54:33;8.60;99.90
48454;DHT22;34261;55.678;12.464;2023-02-17T17:57:01;8.60;99.90
48454;DHT22;34261;55.678;12.464;2023-02-17T18:04:47;8.60;99.90
48454;DHT22;34261;55.678;12.464;2023-02-17T18:07:13;8.60;99.90
48454;DHT22;34261;55.678;12.464;2023-02-17T18:09:40;8.70;99.90
48454;DHT22;34261;55.678;12.464;2023-02-17T18:12:21;8.70;99.90
48454;DHT22;34261;55.678;12.464;2023-02-17T18:14:48;8.70;99.90
48454;DHT22;34261;55.678;12.464;2023-02-17T18:19:55;8.70;99.90
48454;DHT22;34261;55.678;12.464;2023-02-17T18:22:22;8.70;99.90
48454;DHT22;34261;55.678;12.464;2023-02-17T18:24:58;8.80;99.90
48454;DHT22;34261;55.678;12.464;2023-02-17T18:43:06;8.40;99.90
48454;DHT22;34261;55.678;12.464;2023-02-17T18:45:35;8.40;99.90
48454;DHT22;34261;55.678;12.464;2023-02-17T18:53:21;8.30;99.90
48454;DHT22;34261;55.678;12.464;2023-02-17T18:56:49;8.40;99.90
48454;DHT22;34261;55.678;12.464;2023-02-17T19:00:14;8.40;99.90
48454;DHT22;34261;55.678;12.464;2023-02-17T19:03:21;8.30;99.90
48454;DHT22;34261;55.678;12.464;2023-02-17T19:06:20;8.40;99.90
48454;DHT22;34261;55.678;12.464;2023-02-17T19:08:48;8.50;99.90
48454;DHT22;34261;55.678;12.464;2023-02-17T19:11:15;8.50;99.90
48454;DHT22;34261;55.678;12.464;2023-02-17T19:13:45;8.40;99.90
48454;DHT22;34261;55.678;12.464;2023-02-17T19:16:12;8.50;99.90
48454;DHT22;34261;55.678;12.464;2023-02-17T19:18:39;8.50;99.90
48454;DHT22;34261;55.678;12.464;2023-02-17T19:21:08;8.50;99.90
48454;DHT22;34261;55.678;12.464;2023-02-17T19:23:37;8.60;99.90
48454;DHT22;34261;55.678;12.464;2023-02-17T19:26:04;8.60;99.90
48454;DHT22;34261;55.678;12.464;2023-02-17T19:28:31;8.60;99.90
48454;DHT22;34261;55.678;12.464;2023-02-17T19:30:59;8.50;99.90
48454;DHT22;34261;55.678;12.464;2023-02-17T19:33:25;8.40;99.90
48454;DHT22;34261;55.678;12.464;2023-02-17T19:35:51;8.40;99.90
48454;DHT22;34261;55.678;12.464;2023-02-17T19:38:17;8.50;99.90
48454;DHT22;34261;55.678;12.464;2023-02-17T19:40:43;8.40;99.90
48454;DHT22;34261;55.678;12.464;2023-02-17T19:43:10;8.50;99.90
48454;DHT22;34261;55.678;12.464;2023-02-17T19:45:36;8.50;99.90
48454;DHT22;34261;55.678;12.464;2023-02-17T19:48:02;8.60;99.90
48454;DHT22;34261;55.678;12.464;2023-02-17T19:50:30;8.50;99.90
48454;DHT22;34261;55.678;12.464;2023-02-17T19:52:56;8.50;99.90
48454;DHT22;34261;55.678;12.464;2023-02-17T20:08:06;8.60;99.90
48454;DHT22;34261;55.678;12.464;2023-02-17T20:10:36;8.60;99.90
48454;DHT22;34261;55.678;12.464;2023-02-17T20:13:03;8.50;99.90
48454;DHT22;34261;55.678;12.464;2023-02-17T20:15:28;8.50;99.90
48454;DHT22;34261;55.678;12.464;2023-02-17T20:17:55;8.60;99.90
48454;DHT22;34261;55.678;12.464;2023-02-17T20:23:07;8.60;99.90
48454;DHT22;34261;55.678;12.464;2023-02-17T20:25:33;8.60;99.90
48454;DHT22;34261;55.678;12.464;2023-02-17T20:28:00;8.60;99.90
48454;DHT22;34261;55.678;12.464;2023-02-17T20:30:26;8.50;99.90
48454;DHT22;34261;55.678;12.464;2023-02-17T20:32:54;8.50;99.90
48454;DHT22;34261;55.678;12.464;2023-02-17T20:35:42;8.50;99.90
48454;DHT22;34261;55.678;12.464;2023-02-17T20:38:13;8.50;99.90
48454;DHT22;34261;55.678;12.464;2023-02-17T20:56:16;8.30;99.90
48454;DHT22;34261;55.678;12.464;2023-02-17T20:58:50;8.30;99.90
48454;DHT22;34261;55.678;12.464;2023-02-17T21:01:18;8.30;99.90
48454;DHT22;34261;55.678;12.464;2023-02-17T21:03:46;8.20;99.90
48454;DHT22;34261;55.678;12.464;2023-02-17T21:06:22;8.20;99.90
48454;DHT22;34261;55.678;12.464;2023-02-17T21:08:52;8.20;99.90
48454;DHT22;34261;55.678;12.464;2023-02-17T21:11:18;8.20;99.90
48454;DHT22;34261;55.678;12.464;2023-02-17T21:13:44;8.20;99.90
48454;DHT22;34261;55.678;12.464;2023-02-17T21:16:11;8.10;99.90
48454;DHT22;34261;55.678;12.464;2023-02-17T21:18:38;8.10;99.90
48454;DHT22;34261;55.678;12.464;2023-02-17T21:21:07;8.10;99.90
48454;DHT22;34261;55.678;12.464;2023-02-17T21:23:45;8.10;99.90
48454;DHT22;34261;55.678;12.464;2023-02-17T21:26:23;8.10;99.90
48454;DHT22;34261;55.678;12.464;2023-02-17T21:28:49;8.10;99.90
48454;DHT22;34261;55.678;12.464;2023-02-17T21:31:15;8.00;99.90
48454;DHT22;34261;55.678;12.464;2023-02-17T21:33:41;8.00;99.90
48454;DHT22;34261;55.678;12.464;2023-02-17T21:36:09;7.90;99.90
48454;DHT22;34261;55.678;12.464;2023-02-17T21:38:35;8.00;99.90
48454;DHT22;34261;55.678;12.464;2023-02-17T21:41:04;7.90;99.90
48454;DHT22;34261;55.678;12.464;2023-02-17T21:43:30;7.90;99.90
48454;DHT22;34261;55.678;12.464;2023-02-17T21:46:14;7.90;99.90
48454;DHT22;34261;55.678;12.464;2023-02-17T21:48:40;7.90;99.90
48454;DHT22;34261;55.678;12.464;2023-02-17T21:51:06;7.80;99.90
48454;DHT22;34261;55.678;12.464;2023-02-17T21:53:32;7.90;99.90
48454;DHT22;34261;55.678;12.464;2023-02-17T21:55:58;7.80;99.90
48454;DHT22;34261;55.678;12.464;2023-02-17T21:58:24;7.80;99.90
48454;DHT22;34261;55.678;12.464;2023-02-17T22:00:50;7.80;99.90
48454;DHT22;34261;55.678;12.464;2023-02-17T22:03:15;7.80;99.90
48454;DHT22;34261;55.678;12.464;2023-02-17T22:05:42;7.80;99.90
48454;DHT22;34261;55.678;12.464;2023-02-17T22:08:08;7.80;99.90
48454;DHT22;34261;55.678;12.464;2023-02-17T22:10:37;7.80;99.90
48454;DHT22;34261;55.678;12.464;2023-02-17T22:13:04;7.80;99.90
48454;DHT22;34261;55.678;12.464;2023-02-17T22:15:31;7.70;99.90
48454;DHT22;34261;55.678;12.464;2023-02-17T22:17:57;7.70;99.90
48454;DHT22;34261;55.678;12.464;2023-02-17T22:20:22;7.70;99.90
48454;DHT22;34261;55.678;12.464;2023-02-17T22:22:48;7.60;99.90
48454;DHT22;34261;55.678;12.464;2023-02-17T22:25:14;7.60;99.90
48454;DHT22;34261;55.678;12.464;2023-02-17T22:27:40;7.60;99.90
48454;DHT22;34261;55.678;12.464;2023-02-17T22:30:06;7.50;99.90
48454;DHT22;34261;55.678;12.464;2023-02-17T22:32:32;7.50;99.90
48454;DHT22;34261;55.678;12.464;2023-02-17T22:34:58;7.50;99.90
48454;DHT22;34261;55.678;12.464;2023-02-17T22:37:25;7.50;99.90
48454;DHT22;34261;55.678;12.464;2023-02-17T22:39:51;7.50;99.90
48454;DHT22;34261;55.678;12.464;2023-02-17T22:42:17;7.50;99.90
48454;DHT22;34261;55.678;12.464;2023-02-17T22:44:42;7.40;99.90
48454;DHT22;34261;55.678;12.464;2023-02-17T22:47:08;7.50;99.90
48454;DHT22;34261;55.678;12.464;2023-02-17T22:49:34;7.50;99.90
48454;DHT22;34261;55.678;12.464;2023-02-17T22:52:00;7.50;99.90
48454;DHT22;34261;55.678;12.464;2023-02-17T22:54:25;7.50;99.90
48454;DHT22;34261;55.678;12.464;2023-02-17T22:56:51;7.50;99.90
48454;DHT22;34261;55.678;12.464;2023-02-17T22:59:17;7.50;99.90
48454;DHT22;34261;55.678;12.464;2023-02-17T23:01:42;7.50;99.90
48454;DHT22;34261;55.678;12.464;2023-02-17T23:04:10;7.60;99.90
48454;DHT22;34261;55.678;12.464;2023-02-17T23:06:35;7.60;99.90
48454;DHT22;34261;55.678;12.464;2023-02-17T23:09:02;7.60;99.90
48454;DHT22;34261;55.678;12.464;2023-02-17T23:11:29;7.60;99.90
48454;DHT22;34261;55.678;12.464;2023-02-17T23:14:14;7.60;99.90
48454;DHT22;34261;55.678;12.464;2023-02-17T23:16:40;7.50;99.90
48454;DHT22;34261;55.678;12.464;2023-02-17T23:19:06;7.60;99.90
48454;DHT22;34261;55.678;12.464;2023-02-17T23:21:32;7.50;99.90
48454;DHT22;34261;55.678;12.464;2023-02-17T23:23:57;7.50;99.90
48454;DHT22;34261;55.678;12.464;2023-02-17T23:26:23;7.40;99.90
48454;DHT22;34261;55.678;12.464;2023-02-17T23:28:49;7.50;99.90
48454;DHT22;34261;55.678;12.464;2023-02-17T23:31:14;7.40;99.90
48454;DHT22;34261;55.678;12.464;2023-02-17T23:33:40;7.50;99.90
48454;DHT22;34261;55.678;12.464;2023-02-17T23:36:06;7.40;99.90
48454;DHT22;34261;55.678;12.464;2023-02-17T23:38:31;7.50;99.90
48454;DHT22;34261;55.678;12.464;2023-02-17T23:40:57;7.50;99.90
48454;DHT22;34261;55.678;12.464;2023-02-17T23:43:23;7.50;99.90
48454;DHT22;34261;55.678;12.464;2023-02-17T23:45:48;7.50;99.90
48454;DHT22;34261;55.678;12.464;2023-02-17T23:48:14;7.40;99.90
48454;DHT22;34261;55.678;12.464;2023-02-17T23:50:40;7.40;99.90
48454;DHT22;34261;55.678;12.464;2023-02-17T23:53:06;7.40;99.90
48454;DHT22;34261;55.678;12.464;2023-02-17T23:55:32;7.50;99.90
48454;DHT22;34261;55.678;12.464;2023-02-17T23:57:57;7.50;99.90
